createdAt,value
2023-05-21T00:01:26.486Z,80.69
2023-05-21T00:04:15.781Z,80.42
2023-05-21T00:07:05.185Z,79.99
2023-05-21T00:09:53.000Z,79.63
2023-05-21T00:12:41.795Z,79.92
2023-05-21T00:15:29.962Z,80.05
2023-05-21T00:18:18.292Z,80.26
2023-05-21T00:21:06.765Z,80.50
2023-05-21T00:23:56.895Z,79.50
2023-05-21T00:26:44.884Z,79.79
2023-05-21T00:29:32.697Z,80.29
2023-05-21T00:32:20.476Z,80.86
2023-05-21T00:35:09.425Z,79.27
2023-05-21T00:37:57.510Z,80.54
2023-05-21T00:40:46.634Z,79.24
2023-05-21T00:43:34.485Z,79.67
2023-05-21T00:46:23.173Z,78.86
2023-05-21T00:49:11.776Z,79.54
2023-05-21T00:52:01.637Z,79.91
2023-05-21T00:54:50.899Z,79.50
2023-05-21T00:57:41.404Z,80.94
2023-05-21T01:00:29.430Z,78.69
2023-05-21T01:03:17.548Z,79.52
2023-05-21T01:06:06.314Z,79.55
2023-05-21T01:08:56.323Z,79.02
2023-05-21T01:11:47.731Z,79.41
2023-05-21T01:14:38.642Z,80.79
2023-05-21T01:17:27.697Z,80.32
2023-05-21T01:20:18.356Z,79.70
2023-05-21T01:23:07.801Z,79.80
2023-05-21T01:25:55.702Z,79.69
2023-05-21T01:28:43.483Z,79.90
2023-05-21T01:31:39.149Z,79.98
2023-05-21T01:34:33.955Z,81.88
2023-05-21T01:37:27.627Z,80.44
2023-05-21T01:40:24.643Z,80.19
2023-05-21T01:43:13.946Z,79.63
2023-05-21T01:46:02.999Z,80.72
2023-05-21T01:48:52.281Z,80.70
2023-05-21T01:51:40.384Z,79.82
2023-05-21T01:54:27.978Z,79.74
2023-05-21T01:57:17.335Z,79.40
2023-05-21T02:00:06.327Z,79.83
2023-05-21T02:02:54.121Z,80.01
2023-05-21T02:05:42.082Z,80.16
2023-05-21T02:08:29.788Z,79.73
2023-05-21T02:11:17.614Z,80.83
2023-05-21T02:14:08.087Z,80.82
2023-05-21T02:16:56.837Z,81.33
2023-05-21T02:19:44.926Z,80.75
2023-05-21T02:22:32.688Z,80.42
2023-05-21T02:25:20.877Z,80.75
2023-05-21T02:28:08.630Z,80.86
2023-05-21T02:30:58.177Z,82.47
2023-05-21T02:33:46.414Z,81.53
2023-05-21T02:36:36.212Z,82.65
2023-05-21T02:39:23.923Z,82.69
2023-05-21T02:42:11.757Z,82.41
2023-05-21T02:44:59.511Z,81.77
2023-05-21T02:47:48.653Z,82.31
2023-05-21T02:50:36.351Z,82.41
2023-05-21T02:53:24.022Z,82.57
2023-05-21T02:56:12.647Z,83.43
2023-05-21T02:59:00.576Z,82.63
2023-05-21T03:01:48.288Z,83.07
2023-05-21T03:04:39.188Z,82.32
2023-05-21T03:07:27.082Z,84.01
2023-05-21T03:10:14.844Z,82.53
2023-05-21T03:13:05.684Z,83.78
2023-05-21T03:15:56.662Z,82.89
2023-05-21T03:18:44.377Z,83.86
2023-05-21T03:21:33.868Z,83.64
2023-05-21T03:24:21.589Z,83.64
2023-05-21T03:27:09.454Z,82.82
2023-05-21T03:29:57.691Z,83.51
2023-05-21T03:32:46.039Z,83.49
2023-05-21T03:35:34.291Z,82.73
2023-05-21T03:38:23.420Z,82.71
2023-05-21T03:41:11.946Z,82.73
2023-05-21T03:43:59.684Z,83.58
2023-05-21T03:46:47.439Z,82.44
2023-05-21T03:49:35.154Z,84.91
2023-05-21T03:52:23.011Z,82.30
2023-05-21T03:55:12.539Z,81.10
2023-05-21T03:58:00.539Z,81.03
2023-05-21T04:00:48.385Z,82.55
2023-05-21T04:03:37.965Z,84.99
2023-05-21T04:06:28.119Z,87.00
2023-05-21T04:09:16.510Z,91.81
2023-05-21T04:12:06.305Z,93.19
2023-05-21T04:14:54.008Z,93.54
2023-05-21T04:17:41.787Z,95.89
2023-05-21T04:20:29.701Z,100.00
2023-05-21T04:23:17.659Z,100.00
2023-05-21T04:26:05.839Z,100.00
2023-05-21T04:28:59.434Z,100.00
2023-05-21T04:31:47.149Z,100.00
2023-05-21T04:34:34.950Z,100.00
2023-05-21T04:37:24.696Z,100.00
2023-05-21T04:40:18.246Z,100.00
2023-05-21T04:43:06.030Z,100.00
2023-05-21T04:45:55.653Z,100.00
2023-05-21T04:48:43.431Z,100.00
2023-05-21T04:51:31.305Z,100.00
2023-05-21T04:54:19.022Z,100.00
2023-05-21T04:57:07.340Z,100.00
2023-05-21T04:59:55.225Z,100.00
2023-05-21T05:02:44.427Z,100.00
2023-05-21T05:05:32.229Z,100.00
2023-05-21T05:08:19.913Z,100.00
2023-05-21T05:11:07.569Z,100.00
2023-05-21T05:13:55.352Z,100.00
2023-05-21T05:16:43.095Z,100.00
2023-05-21T05:19:32.549Z,100.00
2023-05-21T05:22:20.351Z,100.00
2023-05-21T05:25:08.598Z,100.00
2023-05-21T05:27:56.349Z,100.00
2023-05-21T05:30:44.168Z,100.00
2023-05-21T05:33:31.947Z,100.00
2023-05-21T05:36:21.255Z,100.00
2023-05-21T05:39:08.978Z,100.00
2023-05-21T05:41:56.664Z,100.00
2023-05-21T05:44:44.387Z,100.00
2023-05-21T05:47:33.434Z,100.00
2023-05-21T05:50:21.301Z,100.00
2023-05-21T05:53:13.246Z,100.00
2023-05-21T05:56:01.223Z,100.00
2023-05-21T05:58:48.942Z,100.00
2023-05-21T06:01:36.672Z,100.00
2023-05-21T06:04:24.457Z,100.00
2023-05-21T06:07:12.202Z,100.00
2023-05-21T06:10:01.327Z,100.00
2023-05-21T06:12:49.331Z,100.00
2023-05-21T06:15:37.186Z,100.00
2023-05-21T06:18:25.115Z,100.00
2023-05-21T06:21:12.889Z,100.00
2023-05-21T06:24:01.085Z,100.00
2023-05-21T06:26:50.170Z,100.00
2023-05-21T06:29:37.943Z,100.00
2023-05-21T06:32:25.895Z,100.00
2023-05-21T06:35:13.711Z,100.00
2023-05-21T06:38:01.692Z,100.00
2023-05-21T06:40:49.640Z,100.00
2023-05-21T06:43:38.667Z,100.00
2023-05-21T06:46:26.427Z,100.00
2023-05-21T06:49:15.101Z,100.00
2023-05-21T06:52:03.277Z,100.00
2023-05-21T06:54:51.197Z,100.00
2023-05-21T06:57:39.684Z,100.00
2023-05-21T07:00:28.849Z,100.00
2023-05-21T07:03:17.422Z,100.00
2023-05-21T07:06:05.497Z,100.00
2023-05-21T07:08:53.209Z,100.00
2023-05-21T07:11:40.969Z,100.00
2023-05-21T07:14:28.692Z,100.00
2023-05-21T07:17:17.841Z,100.00
2023-05-21T07:20:07.801Z,100.00
2023-05-21T07:22:55.631Z,100.00
2023-05-21T07:25:43.511Z,100.00
2023-05-21T07:28:31.219Z,100.00
2023-05-21T07:31:19.015Z,100.00
2023-05-21T07:34:08.152Z,100.00
2023-05-21T07:36:55.929Z,100.00
2023-05-21T07:39:43.650Z,100.00
2023-05-21T07:42:32.167Z,100.00
2023-05-21T07:45:19.897Z,100.00
2023-05-21T07:48:08.177Z,100.00
2023-05-21T07:50:58.266Z,100.00
2023-05-21T07:53:45.986Z,100.00
2023-05-21T07:56:33.675Z,100.00
2023-05-21T07:59:21.388Z,100.00
2023-05-21T08:02:09.217Z,100.00
2023-05-21T08:04:57.761Z,100.00
2023-05-21T08:07:47.245Z,100.00
2023-05-21T08:10:35.048Z,100.00
2023-05-21T08:13:23.250Z,100.00
2023-05-21T08:16:11.476Z,99.66
2023-05-21T08:18:59.319Z,100.00
2023-05-21T08:21:47.745Z,98.61
2023-05-21T08:24:36.898Z,100.00
2023-05-21T08:27:24.610Z,98.01
2023-05-21T08:30:13.292Z,96.23
2023-05-21T08:33:01.349Z,97.42
2023-05-21T08:35:49.135Z,98.87
2023-05-21T08:38:36.863Z,98.49
2023-05-21T08:41:27.089Z,95.81
2023-05-21T08:44:15.630Z,96.65
2023-05-21T08:47:05.377Z,95.83
2023-05-21T08:49:54.229Z,95.98
2023-05-21T08:52:42.712Z,95.04
2023-05-21T08:55:32.615Z,96.05
2023-05-21T08:58:22.321Z,95.24
2023-05-21T09:01:11.742Z,95.79
2023-05-21T09:04:12.241Z,94.26
2023-05-21T09:07:08.405Z,93.83
2023-05-21T09:09:58.270Z,93.61
2023-05-21T09:12:48.442Z,92.83
2023-05-21T09:15:38.333Z,93.89
2023-05-21T09:18:27.599Z,93.54
2023-05-21T09:21:26.449Z,92.28
2023-05-21T09:24:15.151Z,92.68
2023-05-21T09:27:03.353Z,93.17
2023-05-21T09:29:51.112Z,88.26
2023-05-21T09:32:40.791Z,88.33
2023-05-21T09:35:28.759Z,86.70
2023-05-21T09:38:16.520Z,85.81
2023-05-21T09:41:06.840Z,87.04
2023-05-21T09:43:54.580Z,87.53
2023-05-21T09:46:42.764Z,88.56
2023-05-21T09:49:32.039Z,89.00
2023-05-21T09:52:26.199Z,89.46
2023-05-21T09:55:15.499Z,90.22
2023-05-21T09:58:04.753Z,88.32
2023-05-21T10:00:54.097Z,88.22
2023-05-21T10:03:43.106Z,89.64
2023-05-21T10:06:33.858Z,89.19
2023-05-21T10:09:22.457Z,90.30
2023-05-21T10:12:11.052Z,89.77
2023-05-21T10:15:02.321Z,89.64
2023-05-21T10:17:51.076Z,91.33
2023-05-21T10:20:39.326Z,89.11
2023-05-21T10:23:30.362Z,89.83
2023-05-21T10:26:19.655Z,90.54
2023-05-21T10:29:09.049Z,91.97
2023-05-21T10:31:57.530Z,88.27
2023-05-21T10:34:47.148Z,89.50
2023-05-21T10:37:35.267Z,89.33
2023-05-21T10:40:24.586Z,89.01
2023-05-21T10:43:35.198Z,89.98
2023-05-21T10:47:17.804Z,89.95
2023-05-21T10:50:30.142Z,90.82
2023-05-21T10:53:26.410Z,92.45
2023-05-21T10:56:24.196Z,91.27
2023-05-21T10:59:21.975Z,91.46
2023-05-21T11:02:12.663Z,91.62
2023-05-21T11:05:01.209Z,89.45
2023-05-21T11:07:56.275Z,87.20
2023-05-21T11:10:45.320Z,86.29
2023-05-21T11:13:49.367Z,87.06
2023-05-21T11:16:37.569Z,88.69
2023-05-21T11:19:36.015Z,86.18
2023-05-21T11:22:25.496Z,88.03
2023-05-21T11:25:13.647Z,88.74
2023-05-21T11:28:06.647Z,88.13
2023-05-21T11:31:24.622Z,88.20
2023-05-21T11:34:16.415Z,88.97
2023-05-21T11:37:30.048Z,88.28
2023-05-21T11:40:26.065Z,87.55
2023-05-21T11:43:14.012Z,87.62
2023-05-21T11:46:02.096Z,87.28
2023-05-21T11:48:53.809Z,87.59
2023-05-21T11:51:42.049Z,86.85
2023-05-21T11:54:34.292Z,88.64
2023-05-21T11:57:22.978Z,88.86
2023-05-21T12:00:16.453Z,89.09
2023-05-21T12:03:05.979Z,89.93
2023-05-21T12:05:55.282Z,88.56
2023-05-21T12:08:43.214Z,86.91
2023-05-21T12:11:31.240Z,87.68
2023-05-21T12:14:19.179Z,88.29
2023-05-21T12:17:08.117Z,88.33
2023-05-21T12:19:56.999Z,87.01
2023-05-21T12:22:46.662Z,88.03
2023-05-21T12:25:34.535Z,87.47
2023-05-21T12:28:22.595Z,86.00
2023-05-21T12:31:16.247Z,87.25
2023-05-21T12:34:04.039Z,87.15
2023-05-21T12:36:52.075Z,86.96
2023-05-21T12:39:42.001Z,86.13
2023-05-21T12:42:31.106Z,85.02
2023-05-21T12:45:21.100Z,83.50
2023-05-21T12:48:09.262Z,82.51
2023-05-21T12:51:00.224Z,81.01
2023-05-21T12:53:48.423Z,79.62
2023-05-21T12:56:46.865Z,81.54
2023-05-21T12:59:51.481Z,80.40
2023-05-21T13:02:41.697Z,79.58
2023-05-21T13:05:29.953Z,78.76
2023-05-21T13:08:17.898Z,77.27
2023-05-21T13:11:05.756Z,72.84
2023-05-21T13:13:54.764Z,71.33
2023-05-21T13:16:42.422Z,73.17
2023-05-21T13:19:30.335Z,71.71
2023-05-21T13:22:18.197Z,70.16
2023-05-21T13:25:07.099Z,71.47
2023-05-21T13:27:55.353Z,71.05
2023-05-21T13:30:44.429Z,72.13
2023-05-21T13:33:32.882Z,71.76
2023-05-21T13:36:20.740Z,72.59
2023-05-21T13:39:08.693Z,70.16
2023-05-21T13:41:56.372Z,71.35
2023-05-21T13:44:44.139Z,71.28
2023-05-21T13:47:33.653Z,72.54
2023-05-21T13:50:21.447Z,73.16
2023-05-21T13:53:09.591Z,72.41
2023-05-21T13:55:57.318Z,72.82
2023-05-21T13:58:46.037Z,74.20
2023-05-21T14:01:33.854Z,74.29
2023-05-21T14:04:23.154Z,73.82
2023-05-21T14:07:12.074Z,72.62
2023-05-21T14:09:59.790Z,74.72
2023-05-21T14:12:47.563Z,75.60
2023-05-21T14:15:35.655Z,75.08
2023-05-21T14:18:23.549Z,75.94
2023-05-21T14:21:12.958Z,74.25
2023-05-21T14:24:00.690Z,73.92
2023-05-21T14:26:48.436Z,73.66
2023-05-21T14:29:36.076Z,73.06
2023-05-21T14:32:23.970Z,73.46
2023-05-21T14:35:11.988Z,73.21
2023-05-21T14:38:01.088Z,74.76
2023-05-21T14:40:48.838Z,75.01
2023-05-21T14:43:36.750Z,74.63
2023-05-21T14:46:24.675Z,73.39
2023-05-21T14:49:13.373Z,74.23
2023-05-21T14:52:01.190Z,74.46
2023-05-21T14:54:50.325Z,74.46
2023-05-21T14:57:38.021Z,73.66
2023-05-21T15:00:25.851Z,73.79
2023-05-21T15:03:13.910Z,73.12
2023-05-21T15:06:01.729Z,73.26
2023-05-21T15:08:49.535Z,71.33
2023-05-21T15:11:39.866Z,71.78
2023-05-21T15:14:27.576Z,71.86
2023-05-21T15:17:15.334Z,72.43
2023-05-21T15:20:04.869Z,71.37
2023-05-21T15:22:56.910Z,70.22
2023-05-21T15:25:52.726Z,69.72
2023-05-21T15:28:41.752Z,68.04
2023-05-21T15:31:29.436Z,69.26
2023-05-21T15:34:18.128Z,65.58
2023-05-21T15:37:06.232Z,66.73
2023-05-21T15:39:54.158Z,68.34
2023-05-21T15:42:41.881Z,68.59
2023-05-21T15:45:30.951Z,67.85
2023-05-21T15:48:22.580Z,69.32
2023-05-21T15:51:10.404Z,66.97
2023-05-21T15:53:58.048Z,67.61
2023-05-21T15:56:47.841Z,69.04
2023-05-21T15:59:35.545Z,68.73
2023-05-21T16:02:24.668Z,69.59
2023-05-21T16:05:12.559Z,71.07
2023-05-21T16:08:00.397Z,70.73
2023-05-21T16:10:48.182Z,71.79
2023-05-21T16:13:35.912Z,71.50
2023-05-21T16:16:24.906Z,70.66
2023-05-21T16:19:14.205Z,71.28
2023-05-21T16:22:02.090Z,71.95
2023-05-21T16:24:49.802Z,71.31
2023-05-21T16:27:37.733Z,70.44
2023-05-21T16:30:25.444Z,70.56
2023-05-21T16:33:13.422Z,70.56
2023-05-21T16:36:02.826Z,72.54
2023-05-21T16:38:50.638Z,72.52
2023-05-21T16:41:38.376Z,73.12
2023-05-21T16:44:26.253Z,73.62
2023-05-21T16:47:14.158Z,73.84
2023-05-21T16:50:01.947Z,75.15
2023-05-21T16:52:51.064Z,75.66
2023-05-21T16:55:39.708Z,74.96
2023-05-21T16:58:27.723Z,75.45
2023-05-21T17:01:15.641Z,75.95
2023-05-21T17:04:03.709Z,76.70
2023-05-21T17:06:51.745Z,76.57
2023-05-21T17:09:40.901Z,77.96
2023-05-21T17:12:28.661Z,78.55
2023-05-21T17:15:16.409Z,78.03
2023-05-21T17:18:04.358Z,78.38
2023-05-21T17:20:52.077Z,79.05
2023-05-21T17:23:39.804Z,78.88
2023-05-21T17:26:28.976Z,79.00
2023-05-21T17:29:19.930Z,77.06
2023-05-21T17:32:08.085Z,77.17
2023-05-21T17:34:55.940Z,77.84
2023-05-21T17:37:43.679Z,76.58
2023-05-21T17:40:31.475Z,75.97
2023-05-21T17:43:20.685Z,77.04
2023-05-21T17:46:08.614Z,76.96
2023-05-21T17:48:56.500Z,77.64
2023-05-21T17:51:44.641Z,78.03
2023-05-21T17:54:32.653Z,79.33
2023-05-21T17:57:21.799Z,78.93
2023-05-21T18:00:12.147Z,80.64
2023-05-21T18:02:59.943Z,80.13
2023-05-21T18:05:47.783Z,79.92
2023-05-21T18:08:35.487Z,81.14
2023-05-21T18:11:24.324Z,80.70
2023-05-21T18:14:12.101Z,81.70
2023-05-21T18:17:01.634Z,82.40
2023-05-21T18:19:49.540Z,83.31
2023-05-21T18:22:37.450Z,83.05
2023-05-21T18:25:25.284Z,82.55
2023-05-21T18:28:13.072Z,83.23
2023-05-21T18:31:03.846Z,83.12
2023-05-21T18:33:53.290Z,83.33
2023-05-21T18:36:41.132Z,83.38
2023-05-21T18:39:29.186Z,83.85
2023-05-21T18:42:17.116Z,83.42
2023-05-21T18:45:08.789Z,83.46
2023-05-21T18:47:56.894Z,82.56
2023-05-21T18:50:46.399Z,82.75
2023-05-21T18:53:34.568Z,82.39
2023-05-21T18:56:22.934Z,82.24
2023-05-21T18:59:10.803Z,81.73
2023-05-21T19:01:58.667Z,81.95
2023-05-21T19:04:46.896Z,83.34
2023-05-21T19:07:36.370Z,82.93
2023-05-21T19:10:24.210Z,81.85
2023-05-21T19:13:12.105Z,81.92
2023-05-21T19:15:59.944Z,81.53
2023-05-21T19:18:48.008Z,82.29
2023-05-21T19:21:36.002Z,81.88
2023-05-21T19:24:25.514Z,82.04
2023-05-21T19:27:13.363Z,82.57
2023-05-21T19:30:01.338Z,81.94
2023-05-21T19:32:51.113Z,81.54
2023-05-21T19:35:39.186Z,81.42
2023-05-21T19:38:27.275Z,81.35
2023-05-21T19:41:16.640Z,82.65
2023-05-21T19:44:04.693Z,83.81
2023-05-21T19:46:52.683Z,85.17
2023-05-21T19:49:40.553Z,85.87
2023-05-21T19:52:28.337Z,86.98
2023-05-21T19:55:20.457Z,86.59
2023-05-21T19:58:13.379Z,86.17
2023-05-21T20:01:01.641Z,86.90
2023-05-21T20:03:49.767Z,86.17
2023-05-21T20:06:38.098Z,85.83
2023-05-21T20:09:28.632Z,86.80
2023-05-21T20:12:16.608Z,86.39
2023-05-21T20:15:08.183Z,86.04
2023-05-21T20:17:59.181Z,85.31
2023-05-21T20:20:47.400Z,84.88
2023-05-21T20:23:38.421Z,86.37
2023-05-21T20:26:27.184Z,85.52
2023-05-21T20:29:15.212Z,87.08
2023-05-21T20:32:04.569Z,86.16
2023-05-21T20:35:02.832Z,85.62
2023-05-21T20:37:52.650Z,86.81
2023-05-21T20:40:40.503Z,86.53
2023-05-21T20:43:28.360Z,87.10
2023-05-21T20:46:18.547Z,87.14
2023-05-21T20:49:08.170Z,87.23
2023-05-21T20:51:56.168Z,87.55
2023-05-21T20:54:46.633Z,87.71
2023-05-21T20:57:34.714Z,87.61
2023-05-21T21:00:22.745Z,87.62
2023-05-21T21:03:11.995Z,88.24
2023-05-21T21:06:02.061Z,88.41
2023-05-21T21:08:50.175Z,88.80
2023-05-21T21:11:37.964Z,89.29
2023-05-21T21:14:25.739Z,89.58
2023-05-21T21:17:13.501Z,90.02
2023-05-21T21:20:01.318Z,90.39
2023-05-21T21:22:51.694Z,90.85
2023-05-21T21:25:39.665Z,90.53
2023-05-21T21:28:27.459Z,91.10
2023-05-21T21:31:17.583Z,91.88
2023-05-21T21:34:05.547Z,92.69
2023-05-21T21:36:56.168Z,92.30
2023-05-21T21:39:45.229Z,93.04
2023-05-21T21:42:32.950Z,93.13
2023-05-21T21:45:20.995Z,92.65
2023-05-21T21:48:08.782Z,92.19
2023-05-21T21:50:56.955Z,92.31
2023-05-21T21:53:44.778Z,91.83
2023-05-21T21:56:33.856Z,90.74
2023-05-21T21:59:22.475Z,91.12
2023-05-21T22:02:10.204Z,90.60
2023-05-21T22:04:58.127Z,89.90
2023-05-21T22:07:47.099Z,90.64
2023-05-21T22:10:38.243Z,90.71
2023-05-21T22:13:29.891Z,91.70
2023-05-21T22:16:17.897Z,92.33
2023-05-21T22:19:05.860Z,91.79
2023-05-21T22:21:54.159Z,92.61
2023-05-21T22:24:42.120Z,92.06
2023-05-21T22:27:29.890Z,92.55
2023-05-21T22:30:19.289Z,93.54
2023-05-21T22:33:07.158Z,94.04
2023-05-21T22:35:54.754Z,93.51
2023-05-21T22:38:43.523Z,93.76
2023-05-21T22:41:31.383Z,94.42
2023-05-21T22:44:19.115Z,95.85
2023-05-21T22:47:09.514Z,95.78
2023-05-21T22:49:58.467Z,93.56
2023-05-21T22:52:46.201Z,94.03
2023-05-21T22:55:33.901Z,95.89
2023-05-21T22:58:21.645Z,95.59
2023-05-21T23:01:09.412Z,95.92
2023-05-21T23:03:58.534Z,96.18
2023-05-21T23:06:46.225Z,96.46
2023-05-21T23:09:33.959Z,96.33
2023-05-21T23:12:21.634Z,97.35
2023-05-21T23:15:10.887Z,96.67
2023-05-21T23:17:59.599Z,97.09
2023-05-21T23:20:48.748Z,97.28
2023-05-21T23:23:36.531Z,98.23
2023-05-21T23:26:25.706Z,97.47
2023-05-21T23:29:13.563Z,98.21
2023-05-21T23:32:01.950Z,98.20
2023-05-21T23:34:49.861Z,97.52
2023-05-21T23:37:39.029Z,97.97
2023-05-21T23:40:26.664Z,98.28
2023-05-21T23:43:14.383Z,98.49
2023-05-21T23:46:02.253Z,97.73
2023-05-21T23:48:50.036Z,98.23
2023-05-21T23:51:37.785Z,99.41
2023-05-21T23:54:26.890Z,99.21
2023-05-21T23:57:14.652Z,99.20
